Time;durP1;ratioP1;P1;durP2;ratioP2;P2;SDS_P1;SDS_P2;PMS_P1;PMS_P2;Temp;Humidity;BMP_temperature;BMP_pressure;BME280_temperature;BME280_humidity;BME280_pressure;Samples;Min_cycle;Max_cycle;Signal;HPM_P1;HPM_P2
2023/10/12 00:00:26;;;;;;;20.08;11.07;;;17.20;75.50;;;;;;5057746;28;20044;-68
2023/10/12 00:02:58;;;;;;;20.83;11.57;;;17.20;75.50;;;;;;5057635;28;20450;-68
2023/10/12 00:05:27;;;;;;;22.63;11.65;;;17.20;75.50;;;;;;5057557;28;20423;-68
2023/10/12 00:08:01;;;;;;;21.70;11.27;;;17.20;75.50;;;;;;5057341;28;20017;-67
2023/10/12 00:10:39;;;;;;;15.95;10.55;;;17.20;75.60;;;;;;5057393;28;20563;-67
2023/10/12 00:13:06;;;;;;;19.90;11.25;;;17.20;75.80;;;;;;5057560;28;20474;-68
2023/10/12 00:15:38;;;;;;;18.83;11.18;;;17.20;75.90;;;;;;5057820;28;20035;-68
2023/10/12 00:18:09;;;;;;;17.50;10.63;;;17.20;75.80;;;;;;5040918;28;20033;-68
2023/10/12 00:20:39;;;;;;;23.25;11.73;;;17.20;75.80;;;;;;5057254;28;20033;-68
2023/10/12 00:23:13;;;;;;;19.40;11.07;;;17.20;75.80;;;;;;5057683;28;20029;-68
2023/10/12 00:25:46;;;;;;;20.80;11.75;;;17.10;75.90;;;;;;5057351;28;20029;-67
2023/10/12 00:28:17;;;;;;;24.48;11.65;;;17.10;75.90;;;;;;5057958;28;20032;-67
2023/10/12 00:30:57;;;;;;;20.67;11.88;;;17.10;75.50;;;;;;5057441;28;20029;-67
2023/10/12 00:33:24;;;;;;;19.17;11.02;;;17.10;75.70;;;;;;5057176;28;20029;-67
2023/10/12 00:39:00;;;;;;;20.50;10.88;;;17.00;75.90;;;;;;4996176;28;20227;-68
2023/10/12 00:41:30;;;;;;;22.50;11.52;;;17.00;75.90;;;;;;4996268;28;20073;-68
2023/10/12 00:49:28;;;;;;;18.40;11.55;;;16.90;75.90;;;;;;4995915;28;20036;-68
2023/10/12 00:52:08;;;;;;;22.17;12.10;;;16.90;76.00;;;;;;4995762;28;20375;-68
2023/10/12 00:54:43;;;;;;;21.92;11.30;;;16.80;76.20;;;;;;4996055;28;20354;-68
2023/10/12 00:57:11;;;;;;;20.25;11.25;;;16.80;76.20;;;;;;4995738;28;20101;-67
2023/10/12 00:59:40;;;;;;;20.23;11.40;;;16.70;76.40;;;;;;4995580;28;20038;-67
2023/10/12 01:02:11;;;;;;;21.13;10.93;;;16.70;76.20;;;;;;4995587;28;20422;-67
2023/10/12 01:04:41;;;;;;;23.02;11.82;;;16.70;76.20;;;;;;4995594;28;20058;-67
2023/10/12 01:07:19;;;;;;;19.73;11.25;;;16.70;76.20;;;;;;4996321;28;20031;-68
2023/10/12 01:09:48;;;;;;;18.83;11.27;;;16.60;76.20;;;;;;4995463;28;20034;-68
2023/10/12 01:12:14;;;;;;;21.58;11.50;;;16.60;76.40;;;;;;4990102;28;20033;-67
2023/10/12 01:14:54;;;;;;;20.60;11.27;;;16.60;76.50;;;;;;5036734;28;20374;-68
2023/10/12 01:17:29;;;;;;;22.70;12.25;;;16.60;76.50;;;;;;5036158;28;20442;-68
2023/10/12 01:20:25;;;;;;;19.75;10.65;;;16.50;76.40;;;;;;5034771;28;20332;-68
2023/10/12 01:22:57;;;;;;;22.35;11.02;;;16.50;76.50;;;;;;5037453;28;20087;-68
2023/10/12 01:25:29;;;;;;;19.73;9.70;;;16.50;76.30;;;;;;5036537;28;20041;-67
2023/10/12 01:27:56;;;;;;;19.63;10.55;;;16.40;76.30;;;;;;5036553;28;20083;-67
2023/10/12 01:30:27;;;;;;;17.92;10.93;;;16.40;76.40;;;;;;5037018;28;20036;-67
2023/10/12 01:32:57;;;;;;;20.05;10.60;;;16.30;76.40;;;;;;5036193;28;20033;-67
2023/10/12 01:35:38;;;;;;;21.13;10.40;;;16.30;76.60;;;;;;5036427;28;20029;-67
2023/10/12 01:38:08;;;;;;;18.73;10.55;;;16.30;76.60;;;;;;5036911;28;20105;-67
2023/10/12 01:40:56;;;;;;;18.45;10.68;;;16.30;76.70;;;;;;5035945;28;20040;-67
2023/10/12 01:43:27;;;;;;;20.83;11.40;;;16.30;76.60;;;;;;5035670;28;20029;-67
2023/10/12 01:46:03;;;;;;;19.38;11.10;;;16.30;76.50;;;;;;5055491;28;20052;-67
2023/10/12 01:48:57;;;;;;;19.25;10.73;;;16.30;76.70;;;;;;5055988;28;20029;-67
2023/10/12 01:51:26;;;;;;;20.13;10.50;;;16.30;76.50;;;;;;5055646;28;20065;-67
2023/10/12 01:54:12;;;;;;;19.42;10.32;;;16.30;76.50;;;;;;5055964;28;20017;-67
2023/10/12 01:56:46;;;;;;;22.30;11.88;;;16.40;76.50;;;;;;5055545;28;20033;-67
2023/10/12 01:59:19;;;;;;;17.02;10.10;;;16.40;76.50;;;;;;5056120;28;20540;-67
2023/10/12 02:02:14;;;;;;;19.40;10.85;;;16.40;76.40;;;;;;5055615;28;20091;-67
2023/10/12 02:04:47;;;;;;;17.92;10.48;;;16.40;76.70;;;;;;5055508;28;20442;-67
2023/10/12 02:07:16;;;;;;;18.38;11.07;;;16.40;76.70;;;;;;5055386;28;20044;-67
2023/10/12 02:09:49;;;;;;;19.27;10.65;;;16.40;76.60;;;;;;5055959;28;20025;-68
2023/10/12 02:12:25;;;;;;;16.75;9.55;;;16.40;76.40;;;;;;5053757;28;20044;-68
2023/10/12 02:14:56;;;;;;;18.98;10.68;;;16.40;76.50;;;;;;5055397;28;20020;-68
2023/10/12 02:17:26;;;;;;;17.65;9.75;;;16.30;76.60;;;;;;5055280;28;20036;-67
2023/10/12 02:20:11;;;;;;;19.40;10.15;;;16.30;76.40;;;;;;5055206;28;20021;-67
2023/10/12 02:22:39;;;;;;;18.00;9.90;;;16.30;76.60;;;;;;5055268;28;20029;-67
2023/10/12 02:25:50;;;;;;;19.23;10.25;;;16.30;76.60;;;;;;5055836;28;20033;-67
2023/10/12 02:27:56;;;;;;;16.60;9.77;;;16.30;76.60;;;;;;5047065;28;20450;-67
2023/10/12 02:30:30;;;;;;;18.65;10.60;;;16.30;76.70;;;;;;5055255;28;20037;-67
2023/10/12 02:33:07;;;;;;;17.48;9.48;;;16.30;76.70;;;;;;5055764;28;20031;-67
2023/10/12 02:35:44;;;;;;;18.15;10.35;;;16.30;76.50;;;;;;5037696;28;20056;-67
2023/10/12 02:38:15;;;;;;;20.55;10.73;;;16.20;76.60;;;;;;5055444;28;20037;-67
2023/10/12 02:40:44;;;;;;;17.13;9.88;;;16.20;76.70;;;;;;5055047;28;20029;-67
2023/10/12 02:43:15;;;;;;;20.42;10.05;;;16.20;76.60;;;;;;5055602;28;20059;-67
2023/10/12 02:45:49;;;;;;;17.60;9.95;;;16.20;76.70;;;;;;5054836;28;20068;-67
2023/10/12 02:48:24;;;;;;;17.73;10.07;;;16.20;76.50;;;;;;5054869;28;20139;-67
2023/10/12 02:51:06;;;;;;;16.80;9.13;;;16.20;76.40;;;;;;5054849;28;20104;-67
2023/10/12 02:53:35;;;;;;;19.52;10.48;;;16.20;76.70;;;;;;5055328;28;20036;-67
2023/10/12 02:56:01;;;;;;;19.63;10.30;;;16.10;76.90;;;;;;5055002;28;20028;-67
2023/10/12 02:58:30;;;;;;;19.48;10.43;;;16.10;77.10;;;;;;5054908;28;20021;-67
2023/10/12 03:01:16;;;;;;;20.33;9.82;;;16.10;77.00;;;;;;5055902;28;20045;-67
2023/10/12 03:03:59;;;;;;;17.95;10.43;;;16.10;77.00;;;;;;5054888;28;20355;-67
2023/10/12 03:06:52;;;;;;;18.00;10.32;;;16.10;76.90;;;;;;5055493;28;20025;-67
2023/10/12 03:09:26;;;;;;;16.95;9.38;;;16.00;76.60;;;;;;5054772;28;20029;-67
2023/10/12 03:11:56;;;;;;;19.67;10.27;;;16.00;76.70;;;;;;5054963;28;20028;-67
2023/10/12 03:14:27;;;;;;;14.98;8.55;;;16.00;76.80;;;;;;5055385;28;20021;-67
2023/10/12 03:17:03;;;;;;;20.63;11.07;;;16.00;76.60;;;;;;5055338;28;20025;-67
2023/10/12 03:19:35;;;;;;;16.92;8.95;;;16.00;76.60;;;;;;5054989;28;20025;-67
2023/10/12 03:22:19;;;;;;;15.77;9.10;;;16.00;76.70;;;;;;5054775;28;20091;-67
2023/10/12 03:24:51;;;;;;;19.40;9.70;;;16.00;76.80;;;;;;5055580;28;20025;-67
2023/10/12 03:27:23;;;;;;;17.15;9.27;;;16.00;76.70;;;;;;5055232;28;20323;-67
2023/10/12 03:30:07;;;;;;;19.85;11.32;;;16.00;76.70;;;;;;5054499;28;20469;-67
2023/10/12 03:32:41;;;;;;;18.88;9.55;;;16.00;76.80;;;;;;4993790;28;20037;-67
2023/10/12 03:35:12;;;;;;;15.63;9.25;;;15.90;76.90;;;;;;4994226;28;20057;-67
2023/10/12 03:37:53;;;;;;;17.23;9.38;;;15.90;77.00;;;;;;4993773;28;20038;-67
2023/10/12 03:43:13;;;;;;;18.88;9.88;;;15.90;76.70;;;;;;4997242;28;20037;-67
2023/10/12 03:46:00;;;;;;;17.15;9.82;;;15.90;76.80;;;;;;4997144;28;20073;-67
2023/10/12 03:54:03;;;;;;;14.95;8.23;;;15.70;76.60;;;;;;4997166;28;20061;-67
2023/10/12 03:56:36;;;;;;;15.85;9.75;;;15.70;76.50;;;;;;4996904;28;20026;-67
2023/10/12 03:59:06;;;;;;;15.10;8.43;;;15.60;76.60;;;;;;4996917;28;20105;-67
2023/10/12 04:01:41;;;;;;;16.45;9.50;;;15.60;76.60;;;;;;4996845;28;20034;-67
2023/10/12 04:04:20;;;;;;;18.50;9.80;;;15.50;77.00;;;;;;5039468;28;20112;-67
2023/10/12 04:09:51;;;;;;;19.17;9.82;;;15.60;77.20;;;;;;5057632;28;20032;-67
2023/10/12 04:15:26;;;;;;;20.05;10.57;;;15.50;77.40;;;;;;5057934;28;20025;-67
2023/10/12 04:17:59;;;;;;;18.27;9.77;;;15.50;77.50;;;;;;5057451;28;20032;-67
2023/10/12 04:20:42;;;;;;;18.67;9.65;;;15.50;77.60;;;;;;5057323;28;20021;-67
2023/10/12 04:26:09;;;;;;;29.58;14.48;;;15.60;77.40;;;;;;5057443;28;20163;-68
2023/10/12 04:28:37;;;;;;;22.75;13.02;;;15.50;77.40;;;;;;5039793;28;20032;-67
2023/10/12 04:33:51;;;;;;;22.20;11.05;;;15.50;77.10;;;;;;5057219;28;20029;-67
2023/10/12 04:39:25;;;;;;;20.65;11.02;;;15.50;77.30;;;;;;5057064;28;20043;-67
2023/10/12 04:42:20;;;;;;;20.63;10.70;;;15.50;77.50;;;;;;5057655;28;20021;-67
2023/10/12 04:45:22;;;;;;;22.73;12.25;;;15.50;77.60;;;;;;5056779;28;20481;-67
2023/10/12 04:47:57;;;;;;;24.48;11.85;;;15.60;77.50;;;;;;5056871;28;20040;-67
2023/10/12 04:50:44;;;;;;;25.70;13.15;;;15.60;77.40;;;;;;5056546;28;20090;-67
2023/10/12 04:53:12;;;;;;;23.58;13.07;;;15.50;77.50;;;;;;5055958;28;20327;-67
2023/10/12 04:55:47;;;;;;;34.85;18.92;;;15.50;77.50;;;;;;5057020;28;20434;-67
2023/10/12 05:01:20;;;;;;;23.38;13.15;;;15.60;77.40;;;;;;5057571;28;20513;-67
2023/10/12 05:04:18;;;;;;;26.90;12.65;;;15.60;77.10;;;;;;5056583;28;20187;-67
2023/10/12 05:07:06;;;;;;;23.40;11.27;;;15.60;76.90;;;;;;5056053;28;20068;-67
2023/10/12 05:09:39;;;;;;;20.67;11.15;;;15.50;76.70;;;;;;5056694;28;20029;-67
2023/10/12 05:12:07;;;;;;;20.98;11.60;;;15.50;76.80;;;;;;5056354;28;20369;-67
2023/10/12 05:14:34;;;;;;;17.15;10.35;;;15.50;76.90;;;;;;5056322;28;20104;-67
2023/10/12 05:17:03;;;;;;;20.00;10.75;;;15.40;76.90;;;;;;5056374;28;20017;-67
2023/10/12 05:19:30;;;;;;;16.52;9.18;;;15.40;77.00;;;;;;5056434;28;20051;-67
2023/10/12 05:21:58;;;;;;;22.63;11.50;;;15.40;77.10;;;;;;5056304;28;20033;-67
2023/10/12 05:24:24;;;;;;;19.95;11.52;;;15.40;77.30;;;;;;5022592;28;20071;-67
2023/10/12 05:26:56;;;;;;;22.08;11.10;;;15.40;77.30;;;;;;5056163;28;20024;-67
2023/10/12 05:32:18;;;;;;;21.40;10.35;;;15.40;77.40;;;;;;5056045;28;20033;-67
2023/10/12 05:34:52;;;;;;;18.83;10.05;;;15.30;77.60;;;;;;5056056;28;20025;-67
2023/10/12 05:37:38;;;;;;;20.00;9.75;;;15.30;77.50;;;;;;5055852;28;20037;-67
2023/10/12 05:40:14;;;;;;;19.38;10.27;;;15.40;77.40;;;;;;5055865;28;20021;-67
2023/10/12 05:42:45;;;;;;;19.45;10.43;;;15.40;77.70;;;;;;5056398;28;20024;-67
2023/10/12 05:45:22;;;;;;;21.52;10.25;;;15.40;77.90;;;;;;5055580;28;20059;-67
2023/10/12 05:47:52;;;;;;;17.77;10.10;;;15.50;77.60;;;;;;5055689;28;20043;-67
2023/10/12 05:50:26;;;;;;;19.52;10.35;;;15.60;77.40;;;;;;5055716;28;20108;-67
2023/10/12 05:52:53;;;;;;;22.55;11.02;;;15.60;77.40;;;;;;5055645;28;20101;-67
2023/10/12 05:55:23;;;;;;;18.83;10.27;;;15.60;77.30;;;;;;5055586;28;20392;-67
2023/10/12 05:57:49;;;;;;;19.13;9.88;;;15.50;77.50;;;;;;5038035;28;20407;-67
2023/10/12 06:00:35;;;;;;;22.83;10.25;;;15.50;77.60;;;;;;5055514;28;20017;-67
2023/10/12 06:03:15;;;;;;;18.48;10.35;;;15.60;77.70;;;;;;5055496;28;20021;-67
2023/10/12 06:05:44;;;;;;;19.15;9.68;;;15.60;77.90;;;;;;5055146;28;20465;-67
2023/10/12 06:08:17;;;;;;;16.92;10.70;;;15.60;77.80;;;;;;5055962;28;20059;-67
2023/10/12 06:10:46;;;;;;;20.73;10.10;;;15.60;77.60;;;;;;5055276;28;20033;-67
2023/10/12 06:13:17;;;;;;;18.30;9.85;;;15.60;77.80;;;;;;5055904;28;20032;-67
2023/10/12 06:15:53;;;;;;;19.35;10.40;;;15.70;77.70;;;;;;5055421;28;20056;-67
2023/10/12 06:18:30;;;;;;;16.90;9.95;;;15.70;77.70;;;;;;5055023;28;20029;-67
2023/10/12 06:21:09;;;;;;;19.17;9.98;;;15.80;77.90;;;;;;5055235;28;20127;-67
2023/10/12 06:23:39;;;;;;;20.48;9.65;;;15.90;78.00;;;;;;5055581;28;20100;-67
2023/10/12 06:26:15;;;;;;;17.35;9.70;;;15.90;78.00;;;;;;5055125;28;20332;-67
2023/10/12 06:28:44;;;;;;;17.55;9.73;;;16.10;78.00;;;;;;5055146;28;20060;-67
2023/10/12 06:31:10;;;;;;;18.85;10.10;;;16.20;78.10;;;;;;5055602;28;20036;-67
2023/10/12 06:33:41;;;;;;;17.40;10.35;;;16.30;78.20;;;;;;5055704;28;20024;-67
2023/10/12 06:36:22;;;;;;;19.88;11.15;;;16.30;78.00;;;;;;5055065;28;20033;-67
2023/10/12 06:40:08;;;;;;;24.20;13.48;;;16.40;78.00;;;;;;5055001;28;20162;-67
2023/10/12 06:44:25;;;;;;;18.52;10.23;;;16.60;78.20;;;;;;5054221;28;20362;-67
2023/10/12 06:46:57;;;;;;;18.95;9.90;;;16.60;78.00;;;;;;5055028;28;20048;-67
2023/10/12 06:49:29;;;;;;;20.08;10.18;;;16.70;77.90;;;;;;5054882;28;20332;-67
2023/10/12 06:52:01;;;;;;;17.48;10.10;;;16.70;77.80;;;;;;5054863;28;20112;-67
2023/10/12 06:55:21;;;;;;;22.05;9.93;;;16.80;78.10;;;;;;5054952;28;20060;-67
2023/10/12 06:57:35;;;;;;;24.35;10.93;;;16.90;78.40;;;;;;5046695;28;20112;-67
2023/10/12 07:02:29;;;;;;;17.52;10.75;;;17.40;77.80;;;;;;5054929;28;20033;-67
2023/10/12 07:05:01;;;;;;;22.58;12.23;;;17.50;77.70;;;;;;5054946;28;20124;-67
2023/10/12 07:07:46;;;;;;;21.87;10.83;;;17.60;77.10;;;;;;5054872;28;20036;-67
2023/10/12 07:10:24;;;;;;;21.40;12.10;;;17.80;76.90;;;;;;5054779;28;20762;-67
2023/10/12 07:12:52;;;;;;;20.60;10.80;;;18.00;76.50;;;;;;5055029;28;20032;-67
2023/10/12 07:15:40;;;;;;;20.33;11.63;;;18.20;76.30;;;;;;5055349;28;20100;-67
2023/10/12 07:18:08;;;;;;;23.08;11.35;;;18.40;76.30;;;;;;5057573;28;20112;-67
2023/10/12 07:23:15;;;;;;;23.13;12.27;;;18.50;75.70;;;;;;5058569;28;20033;-67
2023/10/12 07:25:57;;;;;;;22.55;12.25;;;18.70;75.30;;;;;;5059057;28;20155;-67
2023/10/12 07:28:41;;;;;;;25.45;13.55;;;19.00;74.90;;;;;;5058321;28;20370;-67
2023/10/12 07:42:00;;;;;;;30.25;15.00;;;19.50;74.40;;;;;;5058279;28;20036;-67
2023/10/12 07:44:27;;;;;;;29.70;14.55;;;19.60;74.50;;;;;;5057910;28;20110;-67
2023/10/12 07:46:57;;;;;;;27.98;13.52;;;19.80;74.30;;;;;;5040836;28;20039;-68
2023/10/12 07:49:40;;;;;;;25.02;13.85;;;19.90;74.00;;;;;;5057928;28;20424;-68
2023/10/12 07:57:31;;;;;;;29.67;14.90;;;20.00;74.40;;;;;;5057900;28;20028;-68
2023/10/12 08:13:26;;;;;;;29.27;15.32;;;20.00;75.00;;;;;;5057626;28;20064;-68
2023/10/12 08:15:56;;;;;;;30.58;15.10;;;20.00;75.20;;;;;;5057520;28;20029;-68
2023/10/12 08:19:09;;;;;;;28.85;14.38;;;19.90;75.30;;;;;;5057966;28;20377;-68
2023/10/12 08:21:43;;;;;;;29.02;14.60;;;19.90;75.40;;;;;;5056566;28;20083;-68
2023/10/12 08:24:09;;;;;;;30.10;15.23;;;20.10;75.50;;;;;;5035647;28;20360;-68
2023/10/12 08:31:55;;;;;;;26.48;13.68;;;20.40;74.60;;;;;;5035636;28;20040;-68
2023/10/12 08:37:27;;;;;;;26.92;14.65;;;20.70;74.50;;;;;;5035661;28;20041;-68
2023/10/12 08:45:20;;;;;;;27.38;14.45;;;21.00;73.70;;;;;;5035203;28;20052;-68
2023/10/12 08:47:49;;;;;;;22.85;12.82;;;21.10;73.60;;;;;;5035972;28;20108;-68
2023/10/12 08:52:51;;;;;;;25.98;14.00;;;21.30;73.10;;;;;;5035198;28;20033;-68
2023/10/12 08:55:20;;;;;;;28.50;14.43;;;21.40;72.70;;;;;;5035371;28;20037;-68
2023/10/12 08:58:03;;;;;;;29.20;16.10;;;21.40;72.40;;;;;;5035467;28;20506;-68
2023/10/12 09:03:00;;;;;;;25.60;14.77;;;21.50;71.30;;;;;;5057016;28;20029;-68
2023/10/12 09:05:31;;;;;;;28.70;15.43;;;21.60;71.20;;;;;;5056659;28;20033;-68
2023/10/12 09:13:33;;;;;;;27.73;14.27;;;21.80;71.30;;;;;;5056825;28;20063;-68
2023/10/12 09:16:02;;;;;;;27.63;13.95;;;21.90;70.80;;;;;;5056764;28;20035;-68
2023/10/12 09:18:49;;;;;;;27.05;13.52;;;21.90;70.80;;;;;;5056272;28;20090;-68
2023/10/12 09:24:05;;;;;;;29.00;15.30;;;22.00;70.10;;;;;;5056360;28;20029;-68
2023/10/12 09:26:37;;;;;;;29.92;14.20;;;22.10;70.20;;;;;;5056252;28;20343;-68
2023/10/12 09:36:57;;;;;;;27.15;16.05;;;22.40;69.90;;;;;;4995159;28;20130;-68
2023/10/12 09:39:27;;;;;;;35.78;18.52;;;22.50;69.40;;;;;;4994445;28;20053;-68
2023/10/12 09:42:22;;;;;;;29.40;14.38;;;22.50;69.10;;;;;;4995022;28;20372;-68
2023/10/12 09:44:50;;;;;;;36.90;17.58;;;22.60;68.90;;;;;;4985195;28;20054;-68
2023/10/12 09:47:25;;;;;;;29.00;14.88;;;22.60;67.60;;;;;;4975439;28;20058;-68
2023/10/12 09:49:58;;;;;;;33.13;15.63;;;22.60;68.20;;;;;;4960200;28;20523;-68
2023/10/12 09:52:46;;;;;;;31.35;16.60;;;22.60;68.40;;;;;;4959207;28;20511;-68
2023/10/12 09:55:24;;;;;;;39.63;18.67;;;22.60;68.60;;;;;;4975994;28;20114;-68
2023/10/12 09:58:22;;;;;;;38.83;19.30;;;22.70;68.80;;;;;;4975299;28;20138;-68
2023/10/12 10:01:15;;;;;;;31.63;16.92;;;22.70;68.70;;;;;;4975373;28;20106;-69
2023/10/12 10:03:52;;;;;;;32.20;16.35;;;22.60;69.00;;;;;;4975246;28;20502;-68
2023/10/12 10:06:37;;;;;;;32.22;15.50;;;22.60;69.00;;;;;;4975728;28;20042;-68
2023/10/12 10:09:23;;;;;;;35.10;17.67;;;22.60;69.00;;;;;;4947285;28;20037;-68
2023/10/12 10:11:58;;;;;;;35.28;17.67;;;22.70;68.50;;;;;;4975019;28;20031;-69
2023/10/12 10:14:33;;;;;;;39.35;18.67;;;22.70;68.50;;;;;;5003868;28;20053;-68
2023/10/12 10:17:10;;;;;;;33.05;18.30;;;22.70;68.50;;;;;;5014760;28;20076;-68
2023/10/12 10:19:51;;;;;;;34.05;16.95;;;22.70;67.80;;;;;;5015620;28;20034;-69
2023/10/12 10:22:22;;;;;;;33.85;19.30;;;22.70;67.70;;;;;;5015690;28;20061;-69
2023/10/12 10:24:55;;;;;;;31.80;16.75;;;22.80;67.60;;;;;;5015995;28;20030;-68
2023/10/12 10:27:34;;;;;;;32.83;17.38;;;22.80;67.60;;;;;;5015978;28;20030;-68
2023/10/12 10:30:25;;;;;;;36.45;17.98;;;22.90;67.00;;;;;;5015546;28;20395;-68
2023/10/12 10:33:17;;;;;;;34.45;17.70;;;22.90;66.40;;;;;;5015767;28;20060;-68
2023/10/12 10:36:45;;;;;;;40.40;19.20;;;22.90;66.60;;;;;;5016181;28;20049;-68
2023/10/12 10:44:15;;;;;;;34.00;17.40;;;23.10;66.80;;;;;;5023609;28;20099;-68
2023/10/12 10:46:48;;;;;;;27.83;15.88;;;23.20;66.60;;;;;;5055070;28;20434;-69
2023/10/12 10:49:16;;;;;;;31.90;17.65;;;23.20;66.30;;;;;;5055406;28;20469;-69
2023/10/12 10:54:39;;;;;;;35.83;17.50;;;23.30;65.40;;;;;;5059769;28;20032;-68
2023/10/12 10:57:15;;;;;;;32.53;17.35;;;23.40;65.50;;;;;;5059130;28;20370;-68
2023/10/12 10:59:45;;;;;;;32.53;17.42;;;23.40;65.70;;;;;;5059255;28;20025;-68
2023/10/12 11:02:11;;;;;;;33.20;15.80;;;23.40;64.40;;;;;;5059546;28;20025;-68
2023/10/12 11:07:13;;;;;;;35.85;16.63;;;23.40;64.50;;;;;;5058897;28;20421;-69
2023/10/12 11:12:22;;;;;;;25.83;14.30;;;23.50;64.70;;;;;;5041940;28;20040;-68
2023/10/12 11:15:01;;;;;;;28.58;16.38;;;23.60;64.50;;;;;;5059366;28;20104;-68
2023/10/12 11:17:40;;;;;;;29.40;15.85;;;23.60;64.00;;;;;;5058713;28;20094;-68
2023/10/12 11:20:27;;;;;;;29.75;15.15;;;23.50;64.10;;;;;;5041054;28;20036;-68
2023/10/12 11:22:57;;;;;;;27.38;14.73;;;23.40;63.90;;;;;;5058612;28;20036;-69
2023/10/12 11:25:27;;;;;;;26.10;13.85;;;23.40;64.30;;;;;;5058805;28;20120;-69
2023/10/12 11:27:53;;;;;;;27.10;14.85;;;23.40;64.50;;;;;;5058627;28;20350;-69
2023/10/12 11:33:00;;;;;;;27.02;14.70;;;23.40;63.70;;;;;;5059212;28;20051;-68
2023/10/12 11:35:40;;;;;;;30.65;14.52;;;23.40;63.70;;;;;;5058419;28;20483;-69
2023/10/12 11:38:23;;;;;;;35.28;16.20;;;23.40;64.40;;;;;;5042030;28;20025;-69
2023/10/12 11:40:52;;;;;;;30.77;15.60;;;23.40;63.90;;;;;;5024562;28;20036;-68
2023/10/12 11:43:29;;;;;;;32.10;16.48;;;23.40;64.30;;;;;;5058225;28;20009;-68
2023/10/12 11:46:01;;;;;;;29.13;15.68;;;23.40;64.60;;;;;;5057037;28;20052;-68
2023/10/12 11:48:31;;;;;;;29.45;15.77;;;23.40;64.60;;;;;;5058065;28;20021;-68
2023/10/12 11:51:20;;;;;;;25.73;13.38;;;23.50;64.60;;;;;;5057961;28;20049;-69
2023/10/12 11:53:53;;;;;;;31.65;16.17;;;23.60;64.70;;;;;;5057990;28;20036;-69
2023/10/12 11:56:27;;;;;;;31.15;16.55;;;23.70;64.70;;;;;;5057892;28;20061;-69
2023/10/12 11:58:55;;;;;;;28.67;15.82;;;23.70;63.20;;;;;;5057911;28;20402;-68
2023/10/12 12:01:33;;;;;;;30.25;15.18;;;23.70;64.00;;;;;;5057792;28;20051;-69
2023/10/12 12:04:03;;;;;;;27.23;13.98;;;23.70;63.80;;;;;;5041532;28;20027;-68
2023/10/12 12:06:32;;;;;;;33.42;16.23;;;23.80;64.00;;;;;;5058365;28;20108;-68
2023/10/12 12:08:59;;;;;;;30.80;16.60;;;23.80;63.90;;;;;;5057644;28;20068;-68
2023/10/12 12:11:31;;;;;;;25.10;13.52;;;23.90;64.10;;;;;;5057905;28;20033;-69
2023/10/12 12:13:57;;;;;;;32.80;18.38;;;23.90;64.20;;;;;;5041300;28;20055;-68
2023/10/12 12:16:23;;;;;;;29.83;16.35;;;23.90;63.60;;;;;;5023998;28;20159;-68
2023/10/12 12:18:53;;;;;;;32.65;16.70;;;24.00;63.80;;;;;;5058048;28;20024;-68
2023/10/12 12:24:29;;;;;;;31.00;16.15;;;24.00;63.80;;;;;;5057451;28;20128;-69
2023/10/12 12:26:55;;;;;;;30.27;15.82;;;24.00;63.30;;;;;;5057419;28;20104;-68
2023/10/12 12:29:27;;;;;;;27.73;15.75;;;24.00;63.30;;;;;;5057586;28;20079;-68
2023/10/12 12:31:57;;;;;;;31.63;15.90;;;24.00;63.40;;;;;;5057142;28;20390;-68
2023/10/12 12:34:38;;;;;;;25.92;14.30;;;23.90;63.10;;;;;;5057876;28;20029;-69
2023/10/12 12:37:08;;;;;;;28.65;15.80;;;24.00;63.60;;;;;;5057198;28;20028;-69
2023/10/12 12:39:34;;;;;;;32.22;16.48;;;24.00;63.50;;;;;;5057053;28;20024;-69
2023/10/12 12:44:28;;;;;;;28.63;14.88;;;24.10;63.20;;;;;;5057059;28;20044;-68
2023/10/12 12:46:59;;;;;;;28.33;14.68;;;24.20;63.10;;;;;;5057583;28;20029;-69
2023/10/12 12:49:25;;;;;;;24.58;14.35;;;24.20;63.10;;;;;;5056811;28;20032;-69
2023/10/12 12:51:51;;;;;;;28.27;15.77;;;24.20;62.80;;;;;;5057414;28;20111;-68
2023/10/12 12:54:17;;;;;;;29.10;15.23;;;24.10;62.50;;;;;;5057185;28;20029;-69
2023/10/12 12:56:45;;;;;;;32.33;14.98;;;24.10;62.60;;;;;;5057411;28;20059;-69
2023/10/12 12:59:11;;;;;;;32.75;16.35;;;24.20;62.80;;;;;;5056622;28;20537;-69
2023/10/12 13:01:45;;;;;;;30.88;16.58;;;24.20;62.10;;;;;;5057062;28;20029;-69
2023/10/12 13:04:14;;;;;;;31.70;15.50;;;24.10;62.30;;;;;;5057027;28;20029;-69
2023/10/12 13:06:40;;;;;;;32.42;16.08;;;24.10;62.50;;;;;;5056572;28;20107;-69
2023/10/12 13:09:26;;;;;;;26.67;15.95;;;24.20;62.60;;;;;;5056598;28;20029;-69
2023/10/12 13:11:52;;;;;;;28.90;15.48;;;24.20;62.50;;;;;;5056240;28;20164;-69
2023/10/12 13:14:42;;;;;;;33.08;16.35;;;24.20;62.60;;;;;;5055572;28;20035;-69
2023/10/12 13:17:11;;;;;;;28.77;16.98;;;24.20;62.10;;;;;;5056411;28;20070;-68
2023/10/12 13:19:37;;;;;;;31.23;16.27;;;24.20;62.40;;;;;;5056299;28;20037;-69
2023/10/12 13:22:03;;;;;;;34.58;17.50;;;24.20;62.40;;;;;;5039221;28;20021;-69
2023/10/12 13:24:35;;;;;;;30.70;16.27;;;24.20;62.80;;;;;;5056335;28;20033;-69
2023/10/12 13:27:08;;;;;;;30.85;16.00;;;24.20;62.50;;;;;;5056553;28;20024;-69
2023/10/12 13:29:34;;;;;;;33.47;16.92;;;24.20;62.60;;;;;;5056436;28;20037;-70
2023/10/12 13:32:01;;;;;;;35.92;17.33;;;24.30;62.60;;;;;;5056668;28;20365;-69
2023/10/12 13:34:33;;;;;;;38.13;18.25;;;24.20;62.60;;;;;;5056426;28;20029;-69
2023/10/12 13:37:01;;;;;;;34.70;18.60;;;24.10;62.70;;;;;;5056007;28;20039;-69
2023/10/12 13:39:30;;;;;;;40.80;20.15;;;24.10;62.80;;;;;;5055927;28;20108;-69
2023/10/12 13:41:59;;;;;;;39.17;19.75;;;24.00;62.90;;;;;;5055940;28;20060;-69
2023/10/12 13:44:29;;;;;;;31.70;17.30;;;24.00;63.20;;;;;;5055614;28;20458;-69
2023/10/12 13:46:58;;;;;;;32.70;17.77;;;24.00;63.30;;;;;;5055838;28;20051;-69
2023/10/12 13:49:26;;;;;;;39.13;19.52;;;24.00;63.30;;;;;;5056034;28;20047;-69
2023/10/12 13:51:54;;;;;;;37.65;19.27;;;24.00;63.20;;;;;;5055709;28;20385;-69
2023/10/12 13:54:22;;;;;;;30.88;17.70;;;24.00;63.20;;;;;;5038186;28;20025;-69
2023/10/12 13:56:56;;;;;;;36.70;19.75;;;24.00;63.40;;;;;;5056285;28;20029;-69
2023/10/12 13:59:29;;;;;;;33.20;19.55;;;24.00;63.20;;;;;;5055567;28;20025;-69
2023/10/12 14:01:59;;;;;;;34.15;19.27;;;24.00;63.30;;;;;;5055653;28;20033;-69
2023/10/12 14:04:33;;;;;;;37.15;20.67;;;23.90;63.40;;;;;;5056160;28;20025;-69
2023/10/12 14:09:33;;;;;;;40.65;21.55;;;23.90;63.60;;;;;;5056367;28;20040;-69
2023/10/12 14:11:59;;;;;;;36.33;19.48;;;23.90;63.40;;;;;;5075388;28;20113;-69
2023/10/12 14:14:25;;;;;;;45.25;21.25;;;23.90;63.60;;;;;;5057868;28;20021;-69
2023/10/12 14:16:51;;;;;;;41.05;21.38;;;23.90;63.70;;;;;;5057841;28;20393;-69
2023/10/12 14:19:22;;;;;;;35.58;18.88;;;23.80;63.70;;;;;;5074643;28;20438;-69
2023/10/12 14:21:52;;;;;;;34.95;18.85;;;23.80;63.70;;;;;;5075092;28;20029;-69
2023/10/12 14:24:22;;;;;;;33.63;17.98;;;23.90;63.90;;;;;;5057041;28;20103;-69
2023/10/12 14:26:48;;;;;;;36.60;20.55;;;23.90;63.80;;;;;;5058116;28;20425;-69
2023/10/12 14:29:18;;;;;;;36.70;19.50;;;23.90;63.70;;;;;;5075333;28;20056;-69
2023/10/12 14:31:45;;;;;;;39.63;20.08;;;23.90;63.70;;;;;;5075197;28;20073;-69
2023/10/12 14:34:13;;;;;;;38.75;19.55;;;23.80;63.80;;;;;;5058438;28;20387;-69
2023/10/12 14:36:44;;;;;;;33.67;17.73;;;23.80;63.90;;;;;;5075212;28;20464;-69
2023/10/12 14:39:14;;;;;;;37.40;21.35;;;23.80;64.10;;;;;;5075713;28;20052;-69
2023/10/12 14:41:40;;;;;;;38.95;19.38;;;23.80;64.10;;;;;;5057534;28;20021;-68
2023/10/12 14:44:08;;;;;;;36.83;21.55;;;23.70;64.10;;;;;;5074802;28;20127;-69
2023/10/12 14:46:37;;;;;;;41.13;20.42;;;23.70;64.00;;;;;;5057583;28;20103;-69
2023/10/12 14:49:04;;;;;;;36.00;19.52;;;23.70;64.20;;;;;;5075127;28;20063;-69
2023/10/12 14:51:30;;;;;;;40.65;19.55;;;23.60;64.30;;;;;;5075052;28;20029;-69
2023/10/12 14:53:56;;;;;;;36.88;21.63;;;23.70;64.40;;;;;;5075089;28;20146;-69
2023/10/12 14:56:30;;;;;;;37.33;19.55;;;23.60;64.40;;;;;;5075402;28;20044;-69
2023/10/12 14:58:57;;;;;;;39.08;20.17;;;23.60;64.50;;;;;;5075227;28;20322;-69
2023/10/12 15:01:30;;;;;;;46.25;22.67;;;23.60;64.50;;;;;;5075324;28;20434;-69
2023/10/12 15:03:58;;;;;;;39.30;21.92;;;23.60;64.40;;;;;;5075073;28;20028;-69
2023/10/12 15:06:24;;;;;;;45.20;21.95;;;23.50;64.50;;;;;;5075589;28;20096;-69
2023/10/12 15:08:54;;;;;;;38.88;19.80;;;23.50;64.60;;;;;;5075541;28;20375;-69
2023/10/12 15:11:30;;;;;;;41.17;20.52;;;23.50;64.70;;;;;;5074875;28;20043;-69
2023/10/12 15:13:56;;;;;;;39.95;21.65;;;23.50;64.80;;;;;;5074860;28;20029;-69